sensor_id;sensor_type;location;lat;lon;timestamp;pressure;altitude;pressure_sealevel;temperature
62107;BMP280;48087;32.600;-97.100;2023-02-01T00:00:08;;;;-2.8888599999999998
62107;BMP280;48087;32.600;-97.100;2023-02-01T00:05:12;;;;-2.8333050000000006
62107;BMP280;48087;32.600;-97.100;2023-02-01T00:10:16;;;;-2.8888599999999998
62107;BMP280;48087;32.600;-97.100;2023-02-01T00:15:20;;;;-2.9444150000000002
62107;BMP280;48087;32.600;-97.100;2023-02-01T00:20:24;;;;-2.8888599999999998
62107;BMP280;48087;32.600;-97.100;2023-02-01T00:25:28;;;;-2.9444150000000002
62107;BMP280;48087;32.600;-97.100;2023-02-01T00:30:31;;;;-2.8888599999999998
62107;BMP280;48087;32.600;-97.100;2023-02-01T00:35:37;;;;-2.8333050000000006
62107;BMP280;48087;32.600;-97.100;2023-02-01T00:40:41;;;;-2.8888599999999998
62107;BMP280;48087;32.600;-97.100;2023-02-01T00:45:44;;;;-2.8333050000000006
62107;BMP280;48087;32.600;-97.100;2023-02-01T00:50:48;;;;-2.77775
62107;BMP280;48087;32.600;-97.100;2023-02-01T00:55:53;;;;-2.8333050000000006
62107;BMP280;48087;32.600;-97.100;2023-02-01T01:01:00;;;;-2.8333050000000006
62107;BMP280;48087;32.600;-97.100;2023-02-01T01:04:40;;;;-2.77775
62107;BMP280;48087;32.600;-97.100;2023-02-01T01:09:43;;;;-2.7221949999999993
62107;BMP280;48087;32.600;-97.100;2023-02-01T01:14:48;;;;-2.66664
62107;BMP280;48087;32.600;-97.100;2023-02-01T01:19:52;;;;-2.66664
62107;BMP280;48087;32.600;-97.100;2023-02-01T01:24:56;;;;-2.66664
62107;BMP280;48087;32.600;-97.100;2023-02-01T01:30:00;;;;-2.7221949999999993
62107;BMP280;48087;32.600;-97.100;2023-02-01T01:35:04;;;;-2.66664
62107;BMP280;48087;32.600;-97.100;2023-02-01T01:40:09;;;;-2.7221949999999993
62107;BMP280;48087;32.600;-97.100;2023-02-01T01:45:19;;;;-2.66664
62107;BMP280;48087;32.600;-97.100;2023-02-01T01:50:17;;;;-2.7221949999999993
62107;BMP280;48087;32.600;-97.100;2023-02-01T01:55:21;;;;-2.66664
62107;BMP280;48087;32.600;-97.100;2023-02-01T02:00:24;;;;-2.6110849999999997
62107;BMP280;48087;32.600;-97.100;2023-02-01T02:05:29;;;;-2.66664
62107;BMP280;48087;32.600;-97.100;2023-02-01T02:10:33;;;;-2.6110849999999997
62107;BMP280;48087;32.600;-97.100;2023-02-01T02:15:37;;;;-2.5555300000000005
62107;BMP280;48087;32.600;-97.100;2023-02-01T02:20:45;;;;-2.5555300000000005
62107;BMP280;48087;32.600;-97.100;2023-02-01T02:25:52;;;;-2.5555300000000005
62107;BMP280;48087;32.600;-97.100;2023-02-01T02:30:53;;;;-2.499975
62107;BMP280;48087;32.600;-97.100;2023-02-01T02:35:53;;;;-2.499975
62107;BMP280;48087;32.600;-97.100;2023-02-01T02:41:00;;;;-2.444419999999999
62107;BMP280;48087;32.600;-97.100;2023-02-01T02:46:01;;;;-2.499975
62107;BMP280;48087;32.600;-97.100;2023-02-01T02:51:05;;;;-2.444419999999999
62107;BMP280;48087;32.600;-97.100;2023-02-01T02:56:08;;;;-2.444419999999999
62107;BMP280;48087;32.600;-97.100;2023-02-01T03:01:11;;;;-2.444419999999999
62107;BMP280;48087;32.600;-97.100;2023-02-01T03:06:17;;;;-2.444419999999999
62107;BMP280;48087;32.600;-97.100;2023-02-01T03:11:19;;;;-2.444419999999999
62107;BMP280;48087;32.600;-97.100;2023-02-01T03:16:24;;;;-2.3888650000000005
62107;BMP280;48087;32.600;-97.100;2023-02-01T03:21:29;;;;-2.3888650000000005
62107;BMP280;48087;32.600;-97.100;2023-02-01T03:26:33;;;;-2.3333099999999996
62107;BMP280;48087;32.600;-97.100;2023-02-01T03:31:36;;;;-2.277755000000001
62107;BMP280;48087;32.600;-97.100;2023-02-01T03:36:40;;;;-2.277755000000001
62107;BMP280;48087;32.600;-97.100;2023-02-01T03:41:44;;;;-2.3333099999999996
62107;BMP280;48087;32.600;-97.100;2023-02-01T03:46:49;;;;-2.277755000000001
62107;BMP280;48087;32.600;-97.100;2023-02-01T03:51:54;;;;-2.277755000000001
62107;BMP280;48087;32.600;-97.100;2023-02-01T03:56:56;;;;-2.2222
62107;BMP280;48087;32.600;-97.100;2023-02-01T04:01:59;;;;-2.277755000000001
62107;BMP280;48087;32.600;-97.100;2023-02-01T04:07:04;;;;-2.2222
62107;BMP280;48087;32.600;-97.100;2023-02-01T04:12:08;;;;-2.2222
62107;BMP280;48087;32.600;-97.100;2023-02-01T04:17:11;;;;-2.277755000000001
62107;BMP280;48087;32.600;-97.100;2023-02-01T04:22:15;;;;-2.277755000000001
62107;BMP280;48087;32.600;-97.100;2023-02-01T04:27:19;;;;-2.277755000000001
62107;BMP280;48087;32.600;-97.100;2023-02-01T04:32:23;;;;-2.277755000000001
62107;BMP280;48087;32.600;-97.100;2023-02-01T04:37:28;;;;-2.2222
62107;BMP280;48087;32.600;-97.100;2023-02-01T04:42:32;;;;-2.3333099999999996
62107;BMP280;48087;32.600;-97.100;2023-02-01T04:47:36;;;;-2.3333099999999996
62107;BMP280;48087;32.600;-97.100;2023-02-01T04:52:40;;;;-2.277755000000001
62107;BMP280;48087;32.600;-97.100;2023-02-01T04:57:44;;;;-2.3333099999999996
62107;BMP280;48087;32.600;-97.100;2023-02-01T05:02:48;;;;-2.277755000000001
62107;BMP280;48087;32.600;-97.100;2023-02-01T05:07:52;;;;-2.277755000000001
62107;BMP280;48087;32.600;-97.100;2023-02-01T05:12:55;;;;-2.3333099999999996
62107;BMP280;48087;32.600;-97.100;2023-02-01T05:18:00;;;;-2.277755000000001
62107;BMP280;48087;32.600;-97.100;2023-02-01T05:23:04;;;;-2.277755000000001
62107;BMP280;48087;32.600;-97.100;2023-02-01T05:28:08;;;;-2.3888650000000005
62107;BMP280;48087;32.600;-97.100;2023-02-01T05:33:11;;;;-2.3888650000000005
62107;BMP280;48087;32.600;-97.100;2023-02-01T05:38:16;;;;-2.444419999999999
62107;BMP280;48087;32.600;-97.100;2023-02-01T05:43:20;;;;-2.444419999999999
62107;BMP280;48087;32.600;-97.100;2023-02-01T05:48:24;;;;-2.444419999999999
62107;BMP280;48087;32.600;-97.100;2023-02-01T05:53:28;;;;-2.444419999999999
62107;BMP280;48087;32.600;-97.100;2023-02-01T05:58:32;;;;-2.3333099999999996
62107;BMP280;48087;32.600;-97.100;2023-02-01T06:03:36;;;;-2.3888650000000005
62107;BMP280;48087;32.600;-97.100;2023-02-01T06:08:40;;;;-2.3888650000000005
62107;BMP280;48087;32.600;-97.100;2023-02-01T06:13:44;;;;-2.444419999999999
62107;BMP280;48087;32.600;-97.100;2023-02-01T06:18:48;;;;-2.3888650000000005
62107;BMP280;48087;32.600;-97.100;2023-02-01T06:23:51;;;;-2.3888650000000005
62107;BMP280;48087;32.600;-97.100;2023-02-01T06:28:55;;;;-2.444419999999999
62107;BMP280;48087;32.600;-97.100;2023-02-01T06:34:00;;;;-2.444419999999999
62107;BMP280;48087;32.600;-97.100;2023-02-01T06:39:04;;;;-2.444419999999999
62107;BMP280;48087;32.600;-97.100;2023-02-01T06:44:08;;;;-2.444419999999999
62107;BMP280;48087;32.600;-97.100;2023-02-01T06:49:11;;;;-2.3888650000000005
62107;BMP280;48087;32.600;-97.100;2023-02-01T06:54:16;;;;-2.3888650000000005
62107;BMP280;48087;32.600;-97.100;2023-02-01T06:59:20;;;;-2.3888650000000005
62107;BMP280;48087;32.600;-97.100;2023-02-01T07:04:22;;;;-2.444419999999999
62107;BMP280;48087;32.600;-97.100;2023-02-01T07:09:28;;;;-2.444419999999999
62107;BMP280;48087;32.600;-97.100;2023-02-01T07:14:32;;;;-2.444419999999999
62107;BMP280;48087;32.600;-97.100;2023-02-01T07:19:35;;;;-2.444419999999999
62107;BMP280;48087;32.600;-97.100;2023-02-01T07:24:39;;;;-2.444419999999999
62107;BMP280;48087;32.600;-97.100;2023-02-01T07:29:44;;;;-2.444419999999999
62107;BMP280;48087;32.600;-97.100;2023-02-01T07:34:47;;;;-2.499975
62107;BMP280;48087;32.600;-97.100;2023-02-01T07:39:52;;;;-2.499975
62107;BMP280;48087;32.600;-97.100;2023-02-01T07:44:56;;;;-2.499975
62107;BMP280;48087;32.600;-97.100;2023-02-01T07:50:00;;;;-2.499975
62107;BMP280;48087;32.600;-97.100;2023-02-01T07:55:04;;;;-2.499975
62107;BMP280;48087;32.600;-97.100;2023-02-01T08:00:08;;;;-2.499975
62107;BMP280;48087;32.600;-97.100;2023-02-01T08:05:11;;;;-2.499975
62107;BMP280;48087;32.600;-97.100;2023-02-01T08:10:16;;;;-2.499975
62107;BMP280;48087;32.600;-97.100;2023-02-01T08:15:20;;;;-2.499975
62107;BMP280;48087;32.600;-97.100;2023-02-01T08:20:24;;;;-2.499975
62107;BMP280;48087;32.600;-97.100;2023-02-01T08:25:27;;;;-2.499975
62107;BMP280;48087;32.600;-97.100;2023-02-01T08:30:31;;;;-2.499975
62107;BMP280;48087;32.600;-97.100;2023-02-01T08:35:34;;;;-2.499975
62107;BMP280;48087;32.600;-97.100;2023-02-01T08:40:40;;;;-2.499975
62107;BMP280;48087;32.600;-97.100;2023-02-01T08:45:43;;;;-2.499975
62107;BMP280;48087;32.600;-97.100;2023-02-01T08:50:48;;;;-2.499975
62107;BMP280;48087;32.600;-97.100;2023-02-01T08:55:51;;;;-2.499975
62107;BMP280;48087;32.600;-97.100;2023-02-01T09:00:55;;;;-2.5555300000000005
62107;BMP280;48087;32.600;-97.100;2023-02-01T09:05:59;;;;-2.5555300000000005
62107;BMP280;48087;32.600;-97.100;2023-02-01T09:11:05;;;;-2.6110849999999997
62107;BMP280;48087;32.600;-97.100;2023-02-01T09:16:08;;;;-2.6110849999999997
62107;BMP280;48087;32.600;-97.100;2023-02-01T09:21:11;;;;-2.5555300000000005
62107;BMP280;48087;32.600;-97.100;2023-02-01T09:26:16;;;;-2.6110849999999997
62107;BMP280;48087;32.600;-97.100;2023-02-01T09:31:19;;;;-2.6110849999999997
62107;BMP280;48087;32.600;-97.100;2023-02-01T09:36:23;;;;-2.6110849999999997
62107;BMP280;48087;32.600;-97.100;2023-02-01T09:41:34;;;;-2.66664
62107;BMP280;48087;32.600;-97.100;2023-02-01T09:46:31;;;;-2.66664
62107;BMP280;48087;32.600;-97.100;2023-02-01T09:51:36;;;;-2.7221949999999993
62107;BMP280;48087;32.600;-97.100;2023-02-01T09:56:40;;;;-2.7221949999999993
62107;BMP280;48087;32.600;-97.100;2023-02-01T10:01:43;;;;-2.7221949999999993
62107;BMP280;48087;32.600;-97.100;2023-02-01T10:06:50;;;;-2.66664
62107;BMP280;48087;32.600;-97.100;2023-02-01T10:11:57;;;;-2.66664
62107;BMP280;48087;32.600;-97.100;2023-02-01T10:16:55;;;;-2.7221949999999993
62107;BMP280;48087;32.600;-97.100;2023-02-01T10:21:59;;;;-2.66664
62107;BMP280;48087;32.600;-97.100;2023-02-01T10:27:07;;;;-2.7221949999999993
62107;BMP280;48087;32.600;-97.100;2023-02-01T10:32:10;;;;-2.7221949999999993
62107;BMP280;48087;32.600;-97.100;2023-02-01T10:37:15;;;;-2.7221949999999993
62107;BMP280;48087;32.600;-97.100;2023-02-01T10:42:15;;;;-2.7221949999999993
62107;BMP280;48087;32.600;-97.100;2023-02-01T10:47:18;;;;-2.7221949999999993
62107;BMP280;48087;32.600;-97.100;2023-02-01T10:52:25;;;;-2.7221949999999993
62107;BMP280;48087;32.600;-97.100;2023-02-01T10:57:26;;;;-2.7221949999999993
62107;BMP280;48087;32.600;-97.100;2023-02-01T11:02:31;;;;-2.77775
62107;BMP280;48087;32.600;-97.100;2023-02-01T11:07:34;;;;-2.7221949999999993
62107;BMP280;48087;32.600;-97.100;2023-02-01T11:12:39;;;;-2.7221949999999993
62107;BMP280;48087;32.600;-97.100;2023-02-01T11:17:43;;;;-2.77775
62107;BMP280;48087;32.600;-97.100;2023-02-01T11:22:47;;;;-2.77775
62107;BMP280;48087;32.600;-97.100;2023-02-01T11:27:51;;;;-2.7221949999999993
62107;BMP280;48087;32.600;-97.100;2023-02-01T11:32:55;;;;-2.7221949999999993
62107;BMP280;48087;32.600;-97.100;2023-02-01T11:37:58;;;;-2.7221949999999993
62107;BMP280;48087;32.600;-97.100;2023-02-01T11:43:08;;;;-2.77775
62107;BMP280;48087;32.600;-97.100;2023-02-01T11:48:08;;;;-2.77775
62107;BMP280;48087;32.600;-97.100;2023-02-01T11:53:18;;;;-2.7221949999999993
62107;BMP280;48087;32.600;-97.100;2023-02-01T11:58:20;;;;-2.7221949999999993
62107;BMP280;48087;32.600;-97.100;2023-02-01T12:03:26;;;;-2.7221949999999993
62107;BMP280;48087;32.600;-97.100;2023-02-01T12:08:26;;;;-2.7221949999999993
62107;BMP280;48087;32.600;-97.100;2023-02-01T12:13:31;;;;-2.66664
62107;BMP280;48087;32.600;-97.100;2023-02-01T12:19:04;;;;-2.66664
62107;BMP280;48087;32.600;-97.100;2023-02-01T12:23:41;;;;-2.66664
62107;BMP280;48087;32.600;-97.100;2023-02-01T12:28:43;;;;-2.66664
62107;BMP280;48087;32.600;-97.100;2023-02-01T12:33:47;;;;-2.66664
62107;BMP280;48087;32.600;-97.100;2023-02-01T12:38:49;;;;-2.66664
62107;BMP280;48087;32.600;-97.100;2023-02-01T12:43:52;;;;-2.66664
62107;BMP280;48087;32.600;-97.100;2023-02-01T12:48:55;;;;-2.66664
62107;BMP280;48087;32.600;-97.100;2023-02-01T12:54:00;;;;-2.6110849999999997
62107;BMP280;48087;32.600;-97.100;2023-02-01T12:59:02;;;;-2.6110849999999997
62107;BMP280;48087;32.600;-97.100;2023-02-01T13:04:09;;;;-2.6110849999999997
62107;BMP280;48087;32.600;-97.100;2023-02-01T13:09:14;;;;-2.6110849999999997
62107;BMP280;48087;32.600;-97.100;2023-02-01T13:14:18;;;;-2.5555300000000005
62107;BMP280;48087;32.600;-97.100;2023-02-01T13:19:20;;;;-2.5555300000000005
62107;BMP280;48087;32.600;-97.100;2023-02-01T13:24:27;;;;-2.5555300000000005
62107;BMP280;48087;32.600;-97.100;2023-02-01T13:29:26;;;;-2.5555300000000005
62107;BMP280;48087;32.600;-97.100;2023-02-01T13:34:42;;;;-2.499975
62107;BMP280;48087;32.600;-97.100;2023-02-01T13:39:52;;;;-2.499975
62107;BMP280;48087;32.600;-97.100;2023-02-01T13:44:40;;;;-2.499975
62107;BMP280;48087;32.600;-97.100;2023-02-01T13:49:42;;;;-2.499975
62107;BMP280;48087;32.600;-97.100;2023-02-01T13:54:47;;;;-2.444419999999999
62107;BMP280;48087;32.600;-97.100;2023-02-01T13:59:51;;;;-2.444419999999999
62107;BMP280;48087;32.600;-97.100;2023-02-01T14:04:55;;;;-2.3888650000000005
62107;BMP280;48087;32.600;-97.100;2023-02-01T14:09:58;;;;-2.3888650000000005
62107;BMP280;48087;32.600;-97.100;2023-02-01T14:15:35;;;;-2.3888650000000005
62107;BMP280;48087;32.600;-97.100;2023-02-01T14:20:39;;;;-2.444419999999999
62107;BMP280;48087;32.600;-97.100;2023-02-01T14:25:14;;;;-2.3333099999999996
62107;BMP280;48087;32.600;-97.100;2023-02-01T14:30:14;;;;-2.3333099999999996
62107;BMP280;48087;32.600;-97.100;2023-02-01T14:35:20;;;;-2.3888650000000005
62107;BMP280;48087;32.600;-97.100;2023-02-01T14:40:23;;;;-2.3888650000000005
62107;BMP280;48087;32.600;-97.100;2023-02-01T14:45:47;;;;-2.444419999999999
62107;BMP280;48087;32.600;-97.100;2023-02-01T14:50:46;;;;-2.3888650000000005
62107;BMP280;48087;32.600;-97.100;2023-02-01T14:55:52;;;;-2.3888650000000005
62107;BMP280;48087;32.600;-97.100;2023-02-01T15:00:55;;;;-2.3888650000000005
62107;BMP280;48087;32.600;-97.100;2023-02-01T15:05:59;;;;-2.3888650000000005
62107;BMP280;48087;32.600;-97.100;2023-02-01T15:11:02;;;;-2.3888650000000005
62107;BMP280;48087;32.600;-97.100;2023-02-01T15:16:10;;;;-2.3333099999999996
62107;BMP280;48087;32.600;-97.100;2023-02-01T15:21:15;;;;-2.277755000000001
62107;BMP280;48087;32.600;-97.100;2023-02-01T15:26:31;;;;-2.3888650000000005
62107;BMP280;48087;32.600;-97.100;2023-02-01T15:31:30;;;;-2.2222
62107;BMP280;48087;32.600;-97.100;2023-02-01T15:36:23;;;;-2.166644999999999
62107;BMP280;48087;32.600;-97.100;2023-02-01T15:41:28;;;;-2.166644999999999
62107;BMP280;48087;32.600;-97.100;2023-02-01T15:46:31;;;;-1.9999800000000008
62107;BMP280;48087;32.600;-97.100;2023-02-01T15:51:35;;;;-1.8888699999999992
62107;BMP280;48087;32.600;-97.100;2023-02-01T15:56:39;;;;-1.9999800000000008
62107;BMP280;48087;32.600;-97.100;2023-02-01T16:01:42;;;;-1.8888699999999992
62107;BMP280;48087;32.600;-97.100;2023-02-01T16:06:47;;;;-1.9999800000000008
62107;BMP280;48087;32.600;-97.100;2023-02-01T16:11:54;;;;-2.1110900000000004
62107;BMP280;48087;32.600;-97.100;2023-02-01T16:16:55;;;;-1.9444249999999998
62107;BMP280;48087;32.600;-97.100;2023-02-01T16:21:58;;;;-1.7777599999999996
62107;BMP280;48087;32.600;-97.100;2023-02-01T16:27:02;;;;-1.66665
62107;BMP280;48087;32.600;-97.100;2023-02-01T16:32:08;;;;-1.7222050000000007
62107;BMP280;48087;32.600;-97.100;2023-02-01T16:37:12;;;;-1.66665
62107;BMP280;48087;32.600;-97.100;2023-02-01T16:42:15;;;;-1.8888699999999992
62107;BMP280;48087;32.600;-97.100;2023-02-01T16:47:19;;;;-1.9444249999999998
62107;BMP280;48087;32.600;-97.100;2023-02-01T16:52:24;;;;-1.8888699999999992
62107;BMP280;48087;32.600;-97.100;2023-02-01T16:57:26;;;;-1.8888699999999992
62107;BMP280;48087;32.600;-97.100;2023-02-01T17:02:30;;;;-1.7777599999999996
62107;BMP280;48087;32.600;-97.100;2023-02-01T17:07:35;;;;-1.7222050000000007
62107;BMP280;48087;32.600;-97.100;2023-02-01T17:12:39;;;;-1.6110949999999993
62107;BMP280;48087;32.600;-97.100;2023-02-01T17:17:42;;;;-1.6110949999999993
62107;BMP280;48087;32.600;-97.100;2023-02-01T17:22:46;;;;-1.6110949999999993
62107;BMP280;48087;32.600;-97.100;2023-02-01T17:27:50;;;;-1.7222050000000007
62107;BMP280;48087;32.600;-97.100;2023-02-01T17:32:53;;;;-1.66665
62107;BMP280;48087;32.600;-97.100;2023-02-01T17:37:59;;;;-1.7222050000000007
62107;BMP280;48087;32.600;-97.100;2023-02-01T17:43:03;;;;-1.7777599999999996
62107;BMP280;48087;32.600;-97.100;2023-02-01T17:48:06;;;;-1.8333150000000002
62107;BMP280;48087;32.600;-97.100;2023-02-01T17:53:10;;;;-1.7777599999999996
62107;BMP280;48087;32.600;-97.100;2023-02-01T17:58:14;;;;-1.8888699999999992
62107;BMP280;48087;32.600;-97.100;2023-02-01T18:03:20;;;;-1.8888699999999992
62107;BMP280;48087;32.600;-97.100;2023-02-01T18:08:22;;;;-1.7777599999999996
62107;BMP280;48087;32.600;-97.100;2023-02-01T18:13:26;;;;-1.8333150000000002
62107;BMP280;48087;32.600;-97.100;2023-02-01T18:18:29;;;;-1.7777599999999996
62107;BMP280;48087;32.600;-97.100;2023-02-01T18:23:34;;;;-1.7222050000000007
62107;BMP280;48087;32.600;-97.100;2023-02-01T18:28:37;;;;-1.66665
62107;BMP280;48087;32.600;-97.100;2023-02-01T18:33:42;;;;-1.6110949999999993
62107;BMP280;48087;32.600;-97.100;2023-02-01T18:38:45;;;;-1.66665
62107;BMP280;48087;32.600;-97.100;2023-02-01T18:43:50;;;;-1.7222050000000007
62107;BMP280;48087;32.600;-97.100;2023-02-01T18:48:53;;;;-1.6110949999999993
62107;BMP280;48087;32.600;-97.100;2023-02-01T18:53:59;;;;-1.6110949999999993
62107;BMP280;48087;32.600;-97.100;2023-02-01T18:59:01;;;;-1.5555400000000004
62107;BMP280;48087;32.600;-97.100;2023-02-01T19:04:06;;;;-1.6110949999999993
62107;BMP280;48087;32.600;-97.100;2023-02-01T19:09:09;;;;-1.7222050000000007
62107;BMP280;48087;32.600;-97.100;2023-02-01T19:14:14;;;;-1.7222050000000007
62107;BMP280;48087;32.600;-97.100;2023-02-01T19:19:17;;;;-1.7222050000000007
62107;BMP280;48087;32.600;-97.100;2023-02-01T19:24:22;;;;-1.5555400000000004
62107;BMP280;48087;32.600;-97.100;2023-02-01T19:29:26;;;;-1.5555400000000004
62107;BMP280;48087;32.600;-97.100;2023-02-01T19:34:31;;;;-1.66665
62107;BMP280;48087;32.600;-97.100;2023-02-01T19:39:33;;;;-1.7222050000000007
62107;BMP280;48087;32.600;-97.100;2023-02-01T19:44:38;;;;-1.5555400000000004
62107;BMP280;48087;32.600;-97.100;2023-02-01T19:49:41;;;;-1.6110949999999993
62107;BMP280;48087;32.600;-97.100;2023-02-01T19:54:46;;;;-1.5555400000000004
62107;BMP280;48087;32.600;-97.100;2023-02-01T19:59:49;;;;-1.6110949999999993
62107;BMP280;48087;32.600;-97.100;2023-02-01T20:04:54;;;;-1.6110949999999993
62107;BMP280;48087;32.600;-97.100;2023-02-01T20:09:57;;;;-1.4999849999999997
62107;BMP280;48087;32.600;-97.100;2023-02-01T20:15:02;;;;-1.4444300000000008
62107;BMP280;48087;32.600;-97.100;2023-02-01T20:20:05;;;;-1.66665
62107;BMP280;48087;32.600;-97.100;2023-02-01T20:25:10;;;;-1.66665
62107;BMP280;48087;32.600;-97.100;2023-02-01T20:30:13;;;;-1.66665
62107;BMP280;48087;32.600;-97.100;2023-02-01T20:35:17;;;;-1.5555400000000004
62107;BMP280;48087;32.600;-97.100;2023-02-01T20:40:21;;;;-1.66665
62107;BMP280;48087;32.600;-97.100;2023-02-01T20:45:26;;;;-1.6110949999999993
62107;BMP280;48087;32.600;-97.100;2023-02-01T20:50:29;;;;-1.4999849999999997
62107;BMP280;48087;32.600;-97.100;2023-02-01T20:55:34;;;;-1.6110949999999993
62107;BMP280;48087;32.600;-97.100;2023-02-01T21:00:37;;;;-1.6110949999999993
62107;BMP280;48087;32.600;-97.100;2023-02-01T21:05:45;;;;-1.4999849999999997
62107;BMP280;48087;32.600;-97.100;2023-02-01T21:10:53;;;;-1.5555400000000004
62107;BMP280;48087;32.600;-97.100;2023-02-01T21:15:50;;;;-1.6110949999999993
62107;BMP280;48087;32.600;-97.100;2023-02-01T21:20:53;;;;-1.6110949999999993
62107;BMP280;48087;32.600;-97.100;2023-02-01T21:25:59;;;;-1.6110949999999993
62107;BMP280;48087;32.600;-97.100;2023-02-01T21:31:01;;;;-1.7222050000000007
62107;BMP280;48087;32.600;-97.100;2023-02-01T21:36:06;;;;-1.7222050000000007
62107;BMP280;48087;32.600;-97.100;2023-02-01T21:41:09;;;;-1.7222050000000007
62107;BMP280;48087;32.600;-97.100;2023-02-01T21:46:14;;;;-1.7222050000000007
62107;BMP280;48087;32.600;-97.100;2023-02-01T21:51:17;;;;-1.7222050000000007
62107;BMP280;48087;32.600;-97.100;2023-02-01T21:56:22;;;;-1.66665
62107;BMP280;48087;32.600;-97.100;2023-02-01T22:01:25;;;;-1.66665
62107;BMP280;48087;32.600;-97.100;2023-02-01T22:06:32;;;;-1.7222050000000007
62107;BMP280;48087;32.600;-97.100;2023-02-01T22:11:33;;;;-1.7777599999999996
62107;BMP280;48087;32.600;-97.100;2023-02-01T22:16:38;;;;-1.7222050000000007
62107;BMP280;48087;32.600;-97.100;2023-02-01T22:21:43;;;;-1.7777599999999996
62107;BMP280;48087;32.600;-97.100;2023-02-01T22:26:46;;;;-1.8333150000000002
62107;BMP280;48087;32.600;-97.100;2023-02-01T22:31:49;;;;-1.8333150000000002
62107;BMP280;48087;32.600;-97.100;2023-02-01T22:36:54;;;;-1.8333150000000002
62107;BMP280;48087;32.600;-97.100;2023-02-01T22:41:57;;;;-1.8333150000000002
62107;BMP280;48087;32.600;-97.100;2023-02-01T22:47:01;;;;-1.8333150000000002
62107;BMP280;48087;32.600;-97.100;2023-02-01T22:52:05;;;;-1.7777599999999996
62107;BMP280;48087;32.600;-97.100;2023-02-01T22:57:10;;;;-1.7222050000000007
62107;BMP280;48087;32.600;-97.100;2023-02-01T23:02:13;;;;-1.7222050000000007
62107;BMP280;48087;32.600;-97.100;2023-02-01T23:07:18;;;;-1.7777599999999996
62107;BMP280;48087;32.600;-97.100;2023-02-01T23:12:21;;;;-1.7222050000000007
62107;BMP280;48087;32.600;-97.100;2023-02-01T23:17:26;;;;-1.7777599999999996
62107;BMP280;48087;32.600;-97.100;2023-02-01T23:22:29;;;;-1.7222050000000007
62107;BMP280;48087;32.600;-97.100;2023-02-01T23:27:34;;;;-1.66665
62107;BMP280;48087;32.600;-97.100;2023-02-01T23:32:37;;;;-1.7222050000000007
62107;BMP280;48087;32.600;-97.100;2023-02-01T23:37:42;;;;-1.66665
62107;BMP280;48087;32.600;-97.100;2023-02-01T23:42:46;;;;-1.66665
62107;BMP280;48087;32.600;-97.100;2023-02-01T23:47:50;;;;-1.7222050000000007
62107;BMP280;48087;32.600;-97.100;2023-02-01T23:52:54;;;;-1.6110949999999993
62107;BMP280;48087;32.600;-97.100;2023-02-01T23:57:58;;;;-1.5555400000000004
